< Cyclone 198105 1981 Season Cyclone 198107 >
Cyclone 198106 (FELIX)
General InformationTrack Information on Google MapsDetailed Wind Information || ResourceGoogle EarthGE AnimationAtom FeedGeoJSON
Detalied Best Track (Time Zone = UTC)
Year Month Day Hour Lat. Long. Pressure (hPa) Wind (kt) Class Image Chart
1980 12 22 00 -10.5 127.0 1002 25 2 -- --
1980 12 22 06 -10.6 126.0 1000 25 2 -- --
1980 12 22 12 -10.6 125.0 998 25 2 -- --
1980 12 22 18 -10.6 123.9 996 30 2 -- --
1980 12 23 00 -10.4 122.8 994 35 3 -- --
1980 12 23 06 -10.5 121.7 991 40 3 -- --
1980 12 23 12 -10.8 120.9 987 45 3 -- --
1980 12 23 18 -11.1 120.1 984 50 4 -- --
1980 12 24 00 -11.4 119.4 980 55 4 -- --
1980 12 24 06 -11.6 118.5 975 60 4 -- --
1980 12 24 12 -11.9 117.7 970 75 5 -- --
1980 12 24 18 -12.2 116.8 965 80 5 -- --
1980 12 25 00 -12.7 116.0 960 85 5 -- --
1980 12 25 06 -13.2 115.1 955 90 5 -- --
1980 12 25 12 -13.8 114.2 950 90 5 -- --
1980 12 25 18 -14.2 113.2 945 90 5 -- --
1980 12 26 00 -14.6 112.2 940 100 5 -- --
1980 12 26 06 -14.7 111.1 940 100 5 -- --
1980 12 26 12 -14.9 110.4 941 100 5 -- --
1980 12 26 18 -15.1 109.4 942 100 5 -- --
1980 12 27 00 -15.4 108.5 942 100 5 -- --
1980 12 27 06 -15.8 107.6 945 100 5 -- --
1980 12 27 12 -16.2 106.8 948 100 5 -- --
1980 12 27 18 -16.9 106.0 951 90 5 -- --
1980 12 28 00 -17.7 105.2 955 90 5 -- --
1980 12 28 06 -18.6 104.9 951 90 5 -- --
1980 12 28 12 -19.5 104.5 967 80 5 -- --
1980 12 28 18 -20.5 104.3 973 65 5 -- --
1980 12 29 00 -21.4 104.4 980 55 4 -- --
1980 12 29 06 -22.5 104.9 994 50 4 -- --
1980 12 29 12 -23.0 105.4 996 40 3 -- --
1980 12 29 18 -23.4 106.0 998 30 2 -- --
1980 12 30 00 -23.7 106.8 1000 30 2 -- --
1980 12 30 06 -23.3 107.6 1002 25 2 -- --
1980 12 30 12 -22.7 108.2 1003 25 2 -- --
1980 12 30 18 -21.5 108.3 1004 25 2 -- --
1980 12 31 00 -20.5 109.1 1005 20 2 -- --
< Cyclone 198105 1981 Season Cyclone 198107 >

Help